Etusivu
METAR-TAF:

METAR-TAF

Lentoasemat :

N’Djamenan kansainvälinen lentoasema

N'Djamena, Tšad

Leveyspiiri: 12-08N, Pituuspiiri: 015-02E, korkeus merenpinnasta: 295 m

Tämänhetkinen sää

Tämä raportti tehtiin 20 minuuttia sitten, kello 19.00 UTC
Tuuli 5 kn luoteesta
Lämpötila 29°C
Kosteus 23%
Ilmanpaine 1009 hPa
Näkyvyys: 8000 m

METAR: FTTJ 141900Z 32005KT 8000 NSC 29/06 Q1009 NOSIG

Aika: 20:20 (19:20 UTC)

Sääennuste

Tämä raportti tehtiin 8 tuntia ja 20 minuuttia sitten, kello 11.00 UTC
Ennuste voimassa 14. päivästä klo 12 UTC - 15. päivään klo 18 UTC
Tuuli 8 kn koillisesta
Näkyvyys: 8000 m
Ajoittain
14. päivästä klo 16 UTC - 15. päivään klo 06 UTC
Tuuli 4 kn eri suunnista
Näkyvyys: 4000 m
usvaa

TAF: FTTJ 141100Z 1412/1518 04008KT 8000 NSC TEMPO 1416/1506 VRB04KT 4000 HZ

Säähavainnot ja -ennusteet yli 4000 lentoasemalta (METAR- ja TAF-raportit).

Käytössä olevat sääasemat on merkitty karttaan keltaisilla ja punaisilla pisteillä.

Aseta hiiri pisteen päälle nähdäksesi sääaseman nimen.

Klikkaa sitten nähdäksesi säähavainnot ja -ennusteet.

Kartan vaihtaminen: klikkaa mustalla rastilla varustettuja vihreitä pisteitä, niin voit zoomata sisään; viivalla varustettua vihreää pistettä, niin voit zoomata ulos tai vihreitä nuolia, niin pääset viereisille kartoille.


METAR-TAF: